Time;durP1;ratioP1;P1;durP2;ratioP2;P2;SDS_P1;SDS_P2;PMS_P1;PMS_P2;Temp;Humidity;BMP_temperature;BMP_pressure;BME280_temperature;BME280_humidity;BME280_pressure;Samples;Min_cycle;Max_cycle;Signal;HPM_P1;HPM_P2
2022/10/23 00:00:30;;;;;;;44.88;24.27;;;;;;;8.91;100.00;101408.81;2072298;28;34530;-71
2022/10/23 00:01:38;;;;;;;41.30;24.45;;;;;;;8.95;100.00;101396.31;2072893;28;20046;-71
2022/10/23 00:02:40;;;;;;;50.90;26.42;;;;;;;9.00;100.00;101398.94;2079634;28;34162;-71
2022/10/23 00:03:43;;;;;;;59.20;30.35;;;;;;;9.05;100.00;101403.34;2079003;28;27645;-69
2022/10/23 00:04:48;;;;;;;61.95;28.48;;;;;;;9.07;100.00;101393.53;2072516;28;21799;-71
2022/10/23 00:05:50;;;;;;;44.85;23.65;;;;;;;9.11;100.00;101397.06;2071796;28;33247;-70
2022/10/23 00:06:54;;;;;;;49.42;26.38;;;;;;;9.11;100.00;101392.59;2080297;28;21090;-71
2022/10/23 00:07:59;;;;;;;49.47;26.80;;;;;;;9.14;100.00;101400.59;2079571;28;31852;-71
2022/10/23 00:09:03;;;;;;;43.53;24.10;;;;;;;9.16;100.00;101401.44;2071758;28;33688;-71
2022/10/23 00:10:05;;;;;;;40.70;23.50;;;;;;;9.15;100.00;101393.44;2072516;28;20049;-71
2022/10/23 00:11:10;;;;;;;40.50;21.98;;;;;;;9.16;100.00;101401.44;2071832;28;38012;-71
2022/10/23 00:12:12;;;;;;;50.08;26.27;;;;;;;9.18;100.00;101390.75;2072332;28;22397;-71
2022/10/23 00:13:13;;;;;;;51.58;26.83;;;;;;;9.18;100.00;101399.66;2071355;28;22254;-71
2022/10/23 00:14:18;;;;;;;50.03;25.75;;;;;;;9.21;100.00;101398.75;2071003;28;38400;-71
2022/10/23 00:15:22;;;;;;;53.15;27.75;;;;;;;9.24;100.00;101400.50;2079403;28;20038;-71
2022/10/23 00:16:24;;;;;;;52.35;27.05;;;;;;;9.23;100.00;101398.75;2072223;28;31017;-71
2022/10/23 00:17:26;;;;;;;54.88;28.23;;;;;;;9.26;100.00;101398.69;2072711;28;20148;-72
2022/10/23 00:18:28;;;;;;;51.80;25.85;;;;;;;9.28;100.00;101397.78;2072144;28;29977;-72
2022/10/23 00:19:30;;;;;;;55.35;27.15;;;;;;;9.31;100.00;101388.84;2071947;28;39477;-72
2022/10/23 00:20:31;;;;;;;46.40;26.45;;;;;;;9.30;100.00;101387.97;2072595;28;20792;-72
2022/10/23 00:21:33;;;;;;;55.42;25.95;;;;;;;9.30;100.00;101389.75;2078816;28;32436;-72
2022/10/23 00:22:38;;;;;;;49.80;25.33;;;;;;;9.31;100.00;101394.19;2079516;28;36104;-72
2022/10/23 00:23:40;;;;;;;48.13;26.63;;;;;;;9.31;100.00;101389.75;2079397;28;37316;-72
2022/10/23 00:24:43;;;;;;;46.22;25.27;;;;;;;9.29;100.00;101390.66;2079788;28;38503;-72
2022/10/23 00:25:47;;;;;;;46.00;23.42;;;;;;;9.27;100.00;101387.09;2070861;28;35539;-72
2022/10/23 00:26:49;;;;;;;43.95;22.75;;;;;;;9.27;100.00;101387.09;2071559;28;36242;-72
2022/10/23 00:27:51;;;;;;;42.42;23.33;;;;;;;9.28;100.00;101394.25;2071764;28;20907;-72
2022/10/23 00:28:53;;;;;;;48.78;24.52;;;;;;;9.29;100.00;101390.66;2071469;28;33636;-72
2022/10/23 00:29:55;;;;;;;43.47;22.60;;;;;;;9.29;100.00;101390.66;2079308;28;27179;-72
2022/10/23 00:31:00;;;;;;;45.60;25.70;;;;;;;9.29;100.00;101396.00;2080382;28;20131;-72
2022/10/23 00:32:01;;;;;;;47.88;25.08;;;;;;;9.31;100.00;101391.50;2079627;28;20823;-71
2022/10/23 00:33:03;;;;;;;50.92;24.35;;;;;;;9.31;100.00;101387.06;2072323;28;26380;-70
2022/10/23 00:34:07;;;;;;;46.78;24.52;;;;;;;9.29;100.00;101386.19;2071682;28;20589;-70
2022/10/23 00:35:09;;;;;;;51.78;27.83;;;;;;;9.30;100.00;101382.63;2080687;28;20045;-70
2022/10/23 00:36:13;;;;;;;50.08;24.70;;;;;;;9.29;100.00;101385.31;2079429;28;24950;-70
2022/10/23 00:37:17;;;;;;;38.30;22.10;;;;;;;9.30;100.00;101387.09;2072068;28;20042;-70
2022/10/23 00:38:19;;;;;;;43.15;23.23;;;;;;;9.30;100.00;101387.09;2072485;28;29548;-70
2022/10/23 00:39:21;;;;;;;39.20;21.98;;;;;;;9.29;100.00;101387.97;2072589;28;20049;-70
2022/10/23 00:40:22;;;;;;;42.30;22.33;;;;;;;9.26;100.00;101388.91;2080082;28;20072;-69
2022/10/23 00:41:28;;;;;;;36.38;20.77;;;;;;;9.26;100.00;101386.22;2070854;28;34199;-70
2022/10/23 00:42:30;;;;;;;47.97;24.02;;;;;;;9.27;100.00;101384.44;2072178;28;23711;-70
2022/10/23 00:43:34;;;;;;;48.80;23.90;;;;;;;9.24;100.00;101379.13;2072256;28;20899;-70
2022/10/23 00:44:40;;;;;;;34.80;21.60;;;;;;;9.21;100.00;101388.06;2080266;28;20928;-70
2022/10/23 00:45:44;;;;;;;38.33;22.67;;;;;;;9.19;100.00;101397.88;2079799;28;26057;-70
2022/10/23 00:46:47;;;;;;;34.17;20.70;;;;;;;9.15;100.00;101389.00;2072894;28;20134;-70
2022/10/23 00:47:52;;;;;;;31.20;19.73;;;;;;;9.10;100.00;101388.16;2071875;28;31113;-70
2022/10/23 00:48:57;;;;;;;38.45;20.23;;;;;;;9.07;100.00;101382.84;2080271;28;20930;-70
2022/10/23 00:50:00;;;;;;;44.88;23.83;;;;;;;9.09;100.00;101382.84;2071731;28;20951;-70
2022/10/23 00:51:02;;;;;;;40.05;20.60;;;;;;;9.08;100.00;101379.28;2071472;28;34349;-69
2022/10/23 00:52:08;;;;;;;35.05;19.40;;;;;;;9.08;100.00;101386.41;2079291;28;32645;-69
2022/10/23 00:53:11;;;;;;;39.65;21.13;;;;;;;9.05;100.00;101383.78;2071681;28;20054;-70
2022/10/23 00:54:16;;;;;;;41.08;21.55;;;;;;;9.05;100.00;101386.44;2071539;28;25427;-70
2022/10/23 00:55:28;;;;;;;36.45;20.48;;;;;;;9.06;100.00;101388.19;2079254;28;34530;-69
2022/10/23 00:56:35;;;;;;;38.08;20.42;;;;;;;9.05;100.00;101389.13;2077853;28;20127;-69
2022/10/23 00:57:42;;;;;;;48.92;24.63;;;;;;;9.03;100.00;101389.13;2080066;28;24961;-69
2022/10/23 00:58:44;;;;;;;44.20;21.98;;;;;;;9.05;100.00;101397.13;2080128;28;20957;-69
2022/10/23 00:59:46;;;;;;;37.90;19.17;;;;;;;9.01;100.00;101390.94;2078894;28;22189;-71
2022/10/23 01:00:55;;;;;;;32.15;20.40;;;;;;;8.98;100.00;101393.63;2072117;28;20165;-70
2022/10/23 01:01:57;;;;;;;35.10;20.40;;;;;;;8.95;100.00;101390.97;2072247;28;33064;-70
2022/10/23 01:03:00;;;;;;;35.92;20.02;;;;;;;8.91;100.00;101383.91;2079925;28;20034;-70
2022/10/23 01:04:06;;;;;;;34.67;18.58;;;;;;;8.91;100.00;101384.78;2079889;28;20892;-70
2022/10/23 01:05:08;;;;;;;33.88;17.65;;;;;;;8.91;100.00;101384.78;2079187;28;30470;-70
2022/10/23 01:06:53;;;;;;;36.20;20.30;;;;;;;8.87;100.00;101390.16;2079725;28;20949;-71
2022/10/23 01:08:04;;;;;;;34.97;17.48;;;;;;;8.84;100.00;101393.72;2071483;28;20039;-70
2022/10/23 01:09:44;;;;;;;34.03;20.20;;;;;;;8.81;100.00;101390.19;2073036;28;20164;-71
2022/10/23 01:10:55;;;;;;;35.35;20.35;;;;;;;8.77;100.00;101387.59;2071156;28;30035;-70
2022/10/23 01:12:14;;;;;;;41.28;20.45;;;;;;;8.76;100.00;101383.13;2069254;28;20113;-70
2022/10/23 01:13:45;;;;;;;43.85;21.10;;;;;;;8.78;100.00;101383.13;2074874;28;20136;-70
2022/10/23 01:15:13;;;;;;;41.40;22.23;;;;;;;8.80;100.00;101381.31;2079207;28;20041;-70
2022/10/23 01:16:25;;;;;;;42.25;20.77;;;;;;;8.84;100.00;101376.84;2054584;28;21096;-70
2022/10/23 01:18:13;;;;;;;44.92;22.60;;;;;;;8.82;100.00;101383.97;2072849;28;21148;-70
2022/10/23 01:19:48;;;;;;;40.63;22.60;;;;;;;8.82;100.00;101389.31;2054713;28;20075;-70
2022/10/23 01:21:02;;;;;;;43.72;23.20;;;;;;;8.82;100.00;101378.63;2079530;28;20041;-70
2022/10/23 01:22:40;;;;;;;44.17;22.13;;;;;;;8.80;100.00;101375.97;2079202;28;29197;-69
2022/10/23 01:25:57;;;;;;;40.20;20.95;;;;;;;8.82;100.00;101373.31;2063552;28;20067;-72
2022/10/23 01:27:16;;;;;;;36.97;21.52;;;;;;;8.81;100.00;101376.84;2064811;28;20043;-71
2022/10/23 01:28:44;;;;;;;42.33;22.15;;;;;;;8.82;100.00;101373.31;2069212;28;20057;-72
2022/10/23 01:30:04;;;;;;;50.80;24.60;;;;;;;8.86;100.00;101378.59;2054146;28;23089;-71
2022/10/23 01:31:17;;;;;;;46.10;23.83;;;;;;;8.90;100.00;101379.44;2055181;28;20053;-71
2022/10/23 01:32:49;;;;;;;46.38;24.92;;;;;;;8.92;100.00;101373.19;2055762;28;20840;-71
2022/10/23 01:33:59;;;;;;;43.22;23.80;;;;;;;8.95;100.00;101385.63;2066904;28;20272;-71
2022/10/23 01:35:10;;;;;;;45.45;24.48;;;;;;;8.94;100.00;101386.53;2071098;28;20117;-71
2022/10/23 01:36:17;;;;;;;46.97;25.98;;;;;;;8.95;100.00;101386.53;2062803;28;20253;-71
2022/10/23 01:37:33;;;;;;;44.80;24.30;;;;;;;8.93;100.00;101387.44;2063873;28;20047;-71
2022/10/23 01:39:14;;;;;;;46.45;24.17;;;;;;;8.89;100.00;101388.38;2070559;28;20096;-71
2022/10/23 01:40:36;;;;;;;38.88;20.58;;;;;;;8.81;100.00;101382.19;2063947;28;20089;-71
2022/10/23 01:41:51;;;;;;;35.58;21.23;;;;;;;8.78;100.00;101381.31;2057642;28;20058;-70
2022/10/23 01:43:09;;;;;;;46.80;23.35;;;;;;;8.76;100.00;101388.47;2067474;28;20053;-70
2022/10/23 01:44:23;;;;;;;42.58;22.95;;;;;;;8.74;100.00;101379.59;2071162;28;20039;-70
2022/10/23 01:45:39;;;;;;;45.40;25.05;;;;;;;8.77;100.00;101378.66;2068223;28;20034;-70
2022/10/23 01:46:46;;;;;;;42.60;23.23;;;;;;;8.81;100.00;101382.19;2066203;28;21000;-69
2022/10/23 01:47:50;;;;;;;43.22;24.08;;;;;;;8.79;100.00;101379.53;2070868;28;20851;-70
2022/10/23 01:48:54;;;;;;;49.65;26.48;;;;;;;8.82;100.00;101381.31;2070488;28;20757;-69
2022/10/23 01:49:58;;;;;;;51.92;25.02;;;;;;;8.81;100.00;101376.84;2062626;28;33178;-70
2022/10/23 01:51:07;;;;;;;49.65;25.73;;;;;;;8.79;100.00;101383.13;2062780;28;20035;-69
2022/10/23 01:52:13;;;;;;;43.72;24.88;;;;;;;8.81;100.00;101379.53;2055874;28;21035;-70
2022/10/23 01:53:19;;;;;;;49.00;25.52;;;;;;;8.85;100.00;101378.63;2047591;28;20048;-70
2022/10/23 01:54:27;;;;;;;47.22;24.90;;;;;;;8.81;100.00;101379.53;2055856;28;20059;-70
2022/10/23 01:55:31;;;;;;;46.63;24.73;;;;;;;8.82;100.00;101386.66;2065096;28;20039;-70
2022/10/23 01:56:40;;;;;;;41.00;23.95;;;;;;;8.79;100.00;101382.19;2064072;28;20878;-70
2022/10/23 01:57:46;;;;;;;41.65;22.98;;;;;;;8.75;100.00;101373.34;2070202;28;20112;-69
2022/10/23 01:58:52;;;;;;;48.25;23.67;;;;;;;8.75;100.00;101375.13;2070616;28;20039;-69
2022/10/23 02:00:02;;;;;;;39.25;22.83;;;;;;;8.76;100.00;101374.25;2069360;28;20046;-70
2022/10/23 02:01:07;;;;;;;42.70;25.30;;;;;;;8.74;100.00;101376.00;2069916;28;20038;-69
2022/10/23 02:02:23;;;;;;;43.95;23.02;;;;;;;8.75;100.00;101376.00;2068798;28;20077;-71
2022/10/23 02:03:30;;;;;;;47.92;26.45;;;;;;;8.73;100.00;101372.47;2062533;28;20046;-70
2022/10/23 02:04:46;;;;;;;47.28;25.55;;;;;;;8.72;100.00;101377.81;2055519;28;20177;-69
2022/10/23 02:05:48;;;;;;;36.83;21.52;;;;;;;8.65;100.00;101374.34;2059641;28;21250;-70
2022/10/23 02:06:50;;;;;;;40.63;22.65;;;;;;;8.62;100.00;101366.34;2054377;28;20043;-69
2022/10/23 02:07:53;;;;;;;34.83;21.67;;;;;;;8.62;100.00;101374.34;2046385;28;36322;-69
2022/10/23 02:08:56;;;;;;;38.42;22.42;;;;;;;8.60;100.00;101368.13;2061801;28;20055;-69
2022/10/23 02:09:58;;;;;;;43.83;25.23;;;;;;;8.63;100.00;101365.41;2070786;28;20903;-69
2022/10/23 02:11:13;;;;;;;41.40;23.13;;;;;;;8.62;100.00;101366.34;2070677;28;20061;-69
2022/10/23 02:12:29;;;;;;;48.70;23.70;;;;;;;8.65;100.00;101374.34;2070879;28;20038;-69
2022/10/23 02:13:49;;;;;;;38.30;20.90;;;;;;;8.63;100.00;101372.56;2070444;28;20054;-70
2022/10/23 02:15:31;;;;;;;35.42;21.63;;;;;;;8.59;100.00;101371.69;2067430;28;20043;-70
2022/10/23 02:16:52;;;;;;;;;;;;;;;8.54;100.00;101378.84;2078238;28;26643;-70
2022/10/23 02:18:18;;;;;;;34.92;18.42;;;;;;;8.54;100.00;101369.06;2064714;28;19914;-70
2022/10/23 02:20:01;;;;;;;38.22;20.95;;;;;;;8.53;100.00;101375.28;2065818;28;20886;-70
2022/10/23 02:21:26;;;;;;;43.63;24.13;;;;;;;8.56;100.00;101364.59;2070424;28;33674;-71
2022/10/23 02:22:37;;;;;;;44.83;25.00;;;;;;;8.57;100.00;101368.16;2062276;28;32457;-71
2022/10/23 02:23:57;;;;;;;50.60;25.65;;;;;;;8.56;100.00;101366.38;2062409;28;20308;-70
2022/10/23 02:25:08;;;;;;;48.10;24.65;;;;;;;8.60;100.00;101363.69;2059216;28;106862;-71
2022/10/23 02:26:33;;;;;;;54.78;27.10;;;;;;;8.62;100.00;101362.78;2071159;28;20050;-69
2022/10/23 02:27:43;;;;;;;54.45;25.40;;;;;;;8.64;100.00;101355.66;2063281;28;21031;-70
2022/10/23 02:28:54;;;;;;;50.28;26.70;;;;;;;8.63;100.00;101362.75;2058141;28;20093;-69
2022/10/23 02:30:09;;;;;;;51.03;26.85;;;;;;;8.67;100.00;101355.59;2061707;28;20165;-69
2022/10/23 02:31:15;;;;;;;46.42;25.85;;;;;;;8.66;100.00;101354.72;2058173;28;20154;-70
2022/10/23 02:32:21;;;;;;;48.17;25.20;;;;;;;8.65;100.00;101344.97;2062981;28;20058;-72
2022/10/23 02:33:26;;;;;;;50.42;27.02;;;;;;;8.63;100.00;101352.06;2063884;28;42531;-72
2022/10/23 02:34:28;;;;;;;43.80;25.23;;;;;;;8.61;100.00;101348.53;2071025;28;20086;-72
2022/10/23 02:35:30;;;;;;;47.35;25.10;;;;;;;8.59;100.00;101355.69;2070867;28;20077;-73
2022/10/23 02:36:41;;;;;;;51.05;24.50;;;;;;;8.55;100.00;101351.28;2069929;28;20146;-73
2022/10/23 02:37:54;;;;;;;41.15;24.17;;;;;;;8.51;100.00;101346.88;2055163;28;20046;-71
2022/10/23 02:38:59;;;;;;;35.72;21.55;;;;;;;8.46;100.00;101348.69;2063238;28;20042;-71
2022/10/23 02:40:02;;;;;;;38.22;20.17;;;;;;;8.42;100.00;101347.81;2071169;28;20034;-72
2022/10/23 02:41:19;;;;;;;38.17;20.80;;;;;;;8.39;100.00;101342.47;2070650;28;20169;-71
2022/10/23 02:42:25;;;;;;;36.10;22.25;;;;;;;8.35;100.00;101344.25;2069764;28;20039;-71
2022/10/23 02:43:39;;;;;;;40.88;22.42;;;;;;;8.34;100.00;101345.16;2071723;28;20043;-71
2022/10/23 02:45:17;;;;;;;45.45;22.30;;;;;;;8.34;100.00;101345.16;2071329;28;20796;-70
2022/10/23 02:47:26;;;;;;;40.60;22.25;;;;;;;8.31;100.00;101339.84;2067865;28;20037;-69
2022/10/23 02:48:58;;;;;;;40.97;22.35;;;;;;;8.31;100.00;101345.19;2064003;28;20090;-70
2022/10/23 02:50:20;;;;;;;37.22;20.65;;;;;;;8.31;100.00;101338.94;2059350;28;20868;-70
2022/10/23 02:52:04;;;;;;;45.33;23.88;;;;;;;8.32;100.00;101346.94;2064202;28;20043;-68
2022/10/23 02:53:26;;;;;;;41.40;20.85;;;;;;;8.33;100.00;101339.84;2060930;28;20055;-70
2022/10/23 02:55:04;;;;;;;43.33;22.42;;;;;;;8.33;100.00;101332.72;2064357;28;20896;-73
2022/10/23 02:57:02;;;;;;;31.42;17.60;;;;;;;8.28;100.00;101331.88;2064365;28;20092;-73
2022/10/23 02:58:33;;;;;;;36.08;19.75;;;;;;;8.22;100.00;101329.25;2062003;28;20054;-74
2022/10/23 03:00:05;;;;;;;36.22;19.42;;;;;;;8.19;100.00;101329.28;2065045;28;26265;-73
2022/10/23 03:01:14;;;;;;;39.65;20.23;;;;;;;8.14;100.00;101325.75;2064042;28;29198;-74
2022/10/23 03:02:25;;;;;;;37.42;21.05;;;;;;;8.11;100.00;101323.09;2064223;28;20181;-72
2022/10/23 03:03:34;;;;;;;39.45;21.30;;;;;;;8.08;100.00;101325.78;2058513;28;20825;-76
2022/10/23 03:04:39;;;;;;;36.75;20.13;;;;;;;8.05;100.00;101331.13;2057661;28;20880;-76
2022/10/23 03:05:46;;;;;;;37.15;21.33;;;;;;;7.98;100.00;101324.94;2064189;28;20078;-74
2022/10/23 03:06:50;;;;;;;29.65;17.65;;;;;;;7.94;100.00;101329.41;2065330;28;20074;-74
2022/10/23 03:07:52;;;;;;;37.45;20.83;;;;;;;7.90;100.00;101337.47;2063821;28;20936;-74
2022/10/23 03:09:04;;;;;;;33.50;21.80;;;;;;;7.90;100.00;101329.47;2048733;28;20905;-75
2022/10/23 03:10:08;;;;;;;40.17;21.73;;;;;;;7.87;100.00;101332.13;2056771;28;33544;-75
2022/10/23 03:11:10;;;;;;;36.10;20.67;;;;;;;7.83;100.00;101325.94;2063149;28;20035;-75
2022/10/23 03:12:12;;;;;;;40.30;18.35;;;;;;;7.80;100.00;101326.81;2064090;28;20178;-75
2022/10/23 03:13:13;;;;;;;30.35;17.77;;;;;;;7.80;100.00;101328.59;2064435;28;20081;-75
2022/10/23 03:14:17;;;;;;;35.55;18.52;;;;;;;7.78;100.00;101325.06;2061719;28;20173;-75
2022/10/23 03:15:21;;;;;;;40.42;22.20;;;;;;;7.81;100.00;101322.41;2056448;28;20879;-75
2022/10/23 03:16:25;;;;;;;44.47;23.85;;;;;;;7.86;100.00;101317.94;2056770;28;20039;-75
2022/10/23 03:17:28;;;;;;;47.20;25.02;;;;;;;7.94;100.00;101320.53;2048184;28;20131;-74
2022/10/23 03:18:34;;;;;;;41.58;23.17;;;;;;;7.95;100.00;101309.88;2049691;28;20051;-74
2022/10/23 03:19:37;;;;;;;45.17;23.00;;;;;;;7.98;100.00;101304.50;2055886;28;20932;-75
2022/10/23 03:20:39;;;;;;;46.90;24.48;;;;;;;7.98;100.00;101307.16;2056512;28;20043;-74
2022/10/23 03:21:40;;;;;;;43.80;22.65;;;;;;;7.99;100.00;101298.28;2063920;28;21931;-75
2022/10/23 03:22:42;;;;;;;44.05;25.25;;;;;;;8.00;100.00;101302.72;2056014;28;20051;-75
2022/10/23 03:23:44;;;;;;;48.92;25.83;;;;;;;8.03;100.00;101302.69;2061420;28;20169;-74
2022/10/23 03:24:51;;;;;;;47.00;23.02;;;;;;;8.04;100.00;101303.59;2063653;28;20145;-75
2022/10/23 03:25:54;;;;;;;48.05;25.30;;;;;;;8.00;100.00;101305.41;2064200;28;26172;-74
2022/10/23 03:27:15;;;;;;;43.22;23.77;;;;;;;8.02;100.00;101303.59;2064026;28;20718;-74
2022/10/23 03:28:16;;;;;;;44.08;23.38;;;;;;;8.00;100.00;101297.41;2064108;28;20256;-74
2022/10/23 03:29:18;;;;;;;53.45;27.83;;;;;;;8.05;100.00;101302.69;2064307;28;20043;-75
2022/10/23 03:30:20;;;;;;;48.55;26.13;;;;;;;8.03;100.00;101299.16;2064126;28;20299;-74
2022/10/23 03:31:27;;;;;;;46.75;25.65;;;;;;;8.00;100.00;101297.41;2065267;28;20122;-75
2022/10/23 03:32:32;;;;;;;39.45;22.67;;;;;;;7.98;100.00;101293.84;2063649;28;20058;-73
2022/10/23 03:33:34;;;;;;;41.22;20.67;;;;;;;7.95;100.00;101293.88;2064442;28;20043;-73
2022/10/23 03:34:44;;;;;;;36.97;19.13;;;;;;;7.92;100.00;101291.22;2072093;28;20050;-74
2022/10/23 03:35:47;;;;;;;47.45;24.48;;;;;;;7.88;100.00;101297.47;2072247;28;20034;-74
2022/10/23 03:36:54;;;;;;;40.17;21.95;;;;;;;7.90;100.00;101290.34;2064167;28;20885;-75
2022/10/23 03:37:58;;;;;;;39.35;22.23;;;;;;;7.90;100.00;101285.00;2056750;28;20047;-73
2022/10/23 03:39:00;;;;;;;43.35;24.70;;;;;;;7.95;100.00;101292.97;2064014;28;21058;-74
2022/10/23 03:40:03;;;;;;;40.58;22.30;;;;;;;7.99;100.00;101292.94;2064232;28;20059;-73
2022/10/23 03:41:08;;;;;;;55.85;29.65;;;;;;;8.05;100.00;101283.13;2056502;28;20081;-73
2022/10/23 03:42:10;;;;;;;51.63;27.00;;;;;;;8.09;100.00;101284.88;2063585;28;20043;-74
2022/10/23 03:43:14;;;;;;;41.55;24.20;;;;;;;8.12;100.00;101287.53;2064026;28;20039;-73
2022/10/23 03:44:16;;;;;;;57.15;28.65;;;;;;;8.15;100.00;101288.41;2064023;28;21622;-73
2022/10/23 03:45:19;;;;;;;47.55;26.02;;;;;;;8.15;100.00;101284.84;2056007;28;20047;-74
2022/10/23 03:46:23;;;;;;;52.28;26.83;;;;;;;8.14;100.00;101294.63;2049307;28;20119;-74
2022/10/23 03:47:29;;;;;;;47.33;27.30;;;;;;;8.14;100.00;101291.94;2064633;28;20436;-72
2022/10/23 03:48:31;;;;;;;46.25;25.15;;;;;;;8.14;100.00;101289.28;2071885;28;20046;-71
2022/10/23 03:49:33;;;;;;;44.75;23.85;;;;;;;8.13;100.00;101289.28;2063898;28;20035;-76
2022/10/23 03:50:39;;;;;;;42.85;22.80;;;;;;;8.13;100.00;101298.19;2064058;28;20816;-75
2022/10/23 03:51:40;;;;;;;47.17;27.35;;;;;;;8.15;100.00;101295.53;2063498;28;31754;-76
2022/10/23 03:52:43;;;;;;;46.38;22.83;;;;;;;8.17;100.00;101296.38;2064649;28;20047;-76
2022/10/23 03:53:46;;;;;;;42.75;24.83;;;;;;;8.17;100.00;101293.72;2063894;28;20142;-75
2022/10/23 03:54:49;;;;;;;43.17;25.25;;;;;;;8.17;100.00;101294.59;2063907;28;20883;-75
2022/10/23 03:55:53;;;;;;;48.17;27.58;;;;;;;8.22;100.00;101297.25;2062575;28;20047;-75
2022/10/23 03:56:55;;;;;;;44.63;25.75;;;;;;;8.24;100.00;101300.78;2063326;28;20946;-76
2022/10/23 03:57:58;;;;;;;52.75;27.55;;;;;;;8.23;100.00;101297.22;2063952;28;21107;-75
2022/10/23 03:59:00;;;;;;;44.10;23.15;;;;;;;8.26;100.00;101295.44;2064265;28;20054;-76
2022/10/23 04:00:04;;;;;;;47.10;25.20;;;;;;;8.27;100.00;101291.84;2071983;28;20043;-75
2022/10/23 04:01:16;;;;;;;52.92;28.50;;;;;;;8.32;100.00;101285.59;2070552;28;20055;-76
2022/10/23 04:02:19;;;;;;;49.60;26.88;;;;;;;8.35;100.00;101282.03;2063930;28;20137;-75
2022/10/23 04:03:21;;;;;;;63.25;32.20;;;;;;;8.43;100.00;101276.66;2055677;28;31723;-76
2022/10/23 04:04:24;;;;;;;61.17;32.10;;;;;;;8.46;100.00;101276.63;2063898;28;20043;-76
2022/10/23 04:05:25;;;;;;;57.17;30.17;;;;;;;8.49;100.00;101274.81;2064066;28;20133;-76
2022/10/23 04:06:30;;;;;;;67.35;33.58;;;;;;;8.51;100.00;101286.34;2063524;28;20047;-76
2022/10/23 04:07:32;;;;;;;57.47;28.33;;;;;;;8.52;100.00;101279.22;2064204;28;20168;-75
2022/10/23 04:08:37;;;;;;;54.00;29.13;;;;;;;8.51;100.00;101288.16;2056416;28;20912;-73
2022/10/23 04:09:46;;;;;;;55.15;27.98;;;;;;;8.52;100.00;101285.44;2057982;28;20098;-73
2022/10/23 04:10:50;;;;;;;52.78;28.95;;;;;;;8.52;100.00;101279.22;2071499;28;20113;-72
2022/10/23 04:11:56;;;;;;;57.28;28.48;;;;;;;8.53;100.00;101278.34;2064048;28;20086;-73
2022/10/23 04:13:01;;;;;;;50.22;26.85;;;;;;;8.52;100.00;101284.56;2063821;28;20177;-73
2022/10/23 04:14:05;;;;;;;52.13;28.70;;;;;;;8.52;100.00;101279.22;2063529;28;20133;-73
2022/10/23 04:15:11;;;;;;;47.60;27.08;;;;;;;8.52;100.00;101285.44;2063539;28;20082;-72
2022/10/23 04:16:17;;;;;;;53.22;28.38;;;;;;;8.51;100.00;101283.69;2056574;28;20048;-73
2022/10/23 04:17:21;;;;;;;43.45;26.35;;;;;;;8.50;100.00;101287.25;2063969;28;20062;-74
2022/10/23 04:18:26;;;;;;;44.72;26.65;;;;;;;8.48;100.00;101283.72;2071458;28;20058;-74
2022/10/23 04:19:27;;;;;;;54.00;30.30;;;;;;;8.51;100.00;101275.69;2055179;28;27571;-74
2022/10/23 04:20:31;;;;;;;59.08;31.45;;;;;;;8.53;100.00;101265.00;2055732;28;20082;-74
2022/10/23 04:21:39;;;;;;;58.95;29.90;;;;;;;8.53;100.00;101265.88;2056208;28;20055;-74
2022/10/23 04:22:40;;;;;;;56.05;29.30;;;;;;;8.54;100.00;101261.41;2063300;28;33109;-73
2022/10/23 04:23:46;;;;;;;51.15;28.48;;;;;;;8.54;100.00;101262.31;2063550;28;20046;-73
2022/10/23 04:24:52;;;;;;;55.55;29.70;;;;;;;8.52;100.00;101263.22;2064198;28;20031;-71
2022/10/23 04:25:57;;;;;;;56.92;29.25;;;;;;;8.51;100.00;101267.69;2072250;28;20030;-72
2022/10/23 04:27:02;;;;;;;55.47;28.85;;;;;;;8.48;100.00;101265.03;2063070;28;20128;-72
2022/10/23 04:28:04;;;;;;;48.75;27.58;;;;;;;8.45;100.00;101265.06;2056272;28;20092;-72
2022/10/23 04:29:11;;;;;;;52.83;28.23;;;;;;;8.45;100.00;101265.06;2064508;28;20109;-74
2022/10/23 04:30:14;;;;;;;57.97;30.25;;;;;;;8.47;100.00;101265.03;2071576;28;20034;-72
2022/10/23 04:31:16;;;;;;;55.35;29.90;;;;;;;8.48;100.00;101257.03;2071385;28;20097;-72
2022/10/23 04:32:20;;;;;;;59.25;30.38;;;;;;;8.45;100.00;101262.38;2064162;28;20042;-72
2022/10/23 04:33:21;;;;;;;54.53;28.30;;;;;;;8.44;100.00;101271.31;2056069;28;20051;-72
2022/10/23 04:34:27;;;;;;;53.38;27.75;;;;;;;8.40;100.00;101270.41;2056128;28;20051;-74
2022/10/23 04:35:29;;;;;;;54.20;27.83;;;;;;;8.37;100.00;101269.56;2063981;28;20046;-73
2022/10/23 04:36:31;;;;;;;49.53;25.83;;;;;;;8.36;100.00;101274.00;2071731;28;20895;-73
2022/10/23 04:37:40;;;;;;;58.33;28.55;;;;;;;8.41;100.00;101266.81;2063620;28;20927;-72
2022/10/23 04:38:42;;;;;;;57.38;31.27;;;;;;;8.43;100.00;101273.97;2055721;28;20110;-72
2022/10/23 04:39:44;;;;;;;62.72;29.60;;;;;;;8.44;100.00;101273.09;2063783;28;20074;-73
2022/10/23 04:40:48;;;;;;;60.08;28.75;;;;;;;8.44;100.00;101273.09;2063686;28;20050;-73
2022/10/23 04:41:54;;;;;;;60.47;28.88;;;;;;;8.46;100.00;101272.16;2055945;28;20051;-73
2022/10/23 04:42:58;;;;;;;60.97;29.27;;;;;;;8.47;100.00;101268.63;2063808;28;20169;-73
2022/10/23 04:44:06;;;;;;;51.30;26.42;;;;;;;8.47;100.00;101276.63;2063587;28;20244;-75
2022/10/23 04:45:15;;;;;;;61.38;27.27;;;;;;;8.49;100.00;101274.81;2063861;28;21410;-74
2022/10/23 04:46:17;;;;;;;57.75;27.42;;;;;;;8.46;100.00;101279.31;2071424;28;20042;-75
2022/10/23 04:47:21;;;;;;;51.85;28.17;;;;;;;8.42;100.00;101278.44;2055657;28;20148;-75
2022/10/23 04:48:30;;;;;;;45.50;21.95;;;;;;;8.35;100.00;101274.03;2063692;28;20325;-75
2022/10/23 04:49:50;;;;;;;42.85;22.30;;;;;;;8.27;100.00;101279.41;2065710;28;20165;-74
2022/10/23 04:51:02;;;;;;;45.83;23.55;;;;;;;8.24;100.00;101290.13;2063089;28;20047;-75
2022/10/23 04:52:33;;;;;;;41.80;22.92;;;;;;;8.19;100.00;101273.25;2043342;28;20121;-75
2022/10/23 04:53:58;;;;;;;53.13;22.83;;;;;;;8.17;100.00;101277.72;2051315;28;20833;-74
2022/10/23 04:55:17;;;;;;;51.42;25.13;;;;;;;8.19;100.00;101281.25;2071734;28;20095;-75
2022/10/23 04:56:26;;;;;;;41.75;24.00;;;;;;;8.17;100.00;101275.06;2063760;28;20145;-74
2022/10/23 04:57:36;;;;;;;40.60;22.00;;;;;;;8.15;100.00;101277.72;2063354;28;20152;-75
2022/10/23 04:58:41;;;;;;;55.22;24.27;;;;;;;8.15;100.00;101274.19;2055925;28;20051;-74
2022/10/23 04:59:43;;;;;;;51.30;25.77;;;;;;;8.15;100.00;101275.06;2055331;28;20181;-74
2022/10/23 05:00:46;;;;;;;42.58;23.13;;;;;;;8.15;100.00;101284.84;2063395;28;20043;-74
2022/10/23 05:01:54;;;;;;;53.33;26.02;;;;;;;8.11;100.00;101283.09;2070631;28;20851;-75
2022/10/23 05:02:57;;;;;;;40.60;21.35;;;;;;;8.09;100.00;101275.09;2071843;28;20042;-75
2022/10/23 05:04:05;;;;;;;46.08;24.10;;;;;;;8.07;100.00;101281.34;2063191;28;20043;-74
2022/10/23 05:05:16;;;;;;;40.25;22.00;;;;;;;8.06;100.00;101274.22;2064573;28;20931;-75
2022/10/23 05:06:31;;;;;;;41.35;23.67;;;;;;;8.06;100.00;101277.81;2069235;28;20055;-75
2022/10/23 05:07:59;;;;;;;45.55;24.17;;;;;;;8.05;100.00;101272.47;2057901;28;20204;-74
2022/10/23 05:09:21;;;;;;;46.63;23.20;;;;;;;8.04;100.00;101279.59;2063639;28;20153;-74
2022/10/23 05:10:34;;;;;;;49.83;25.02;;;;;;;8.07;100.00;101276.00;2064976;28;20185;-74
2022/10/23 05:11:42;;;;;;;50.63;25.42;;;;;;;8.07;100.00;101270.69;2063745;28;20772;-74
2022/10/23 05:12:46;;;;;;;53.63;26.65;;;;;;;8.09;100.00;101268.88;2063303;28;20149;-72
2022/10/23 05:13:48;;;;;;;52.63;23.70;;;;;;;8.12;100.00;101277.75;2063756;28;20031;-73
2022/10/23 05:14:50;;;;;;;59.83;28.42;;;;;;;8.17;100.00;101269.72;2063262;28;20051;-74
2022/10/23 05:15:52;;;;;;;61.70;30.70;;;;;;;8.22;100.00;101268.78;2063073;28;20046;-74